This is the latest recevied weather packets stored in our database for station/object WABO. If no packets are shown the sender has not sent any weather packets the latest 10 day(s).
| Time | Temp. | Humidity | Pressure | Rain* | Wind** | Luminosity | Snow |
|---|---|---|---|---|---|---|---|
| 1788037360 | 23.89° C | 89% | 1012 hPa | 0 mm | - | - | - |
| 1788035430 | 23.89° C | 89% | 1012 hPa | 0 mm | - | - | - |
| 1788033500 | 23.89° C | 89% | 1012 hPa | 0 mm | - | - | - |
| 1788031571 | 23.89° C | 94% | 1012 hPa | 0 mm | - | - | - |
| 1788029637 | 23.89° C | 94% | 1013 hPa | 0 mm | - | - | - |
| 1788027697 | 23.89° C | 94% | 1013 hPa | 0 mm | - | - | - |
| 1788025739 | 23.89° C | 94% | 1011 hPa | 0 mm | - | - | - |
| 1788023478 | 23.89° C | 94% | 1011 hPa | 0 mm | - | - | - |
| 1788021446 | 30° C | 55% | 1014 hPa | 0 mm | - | - | - |
| 1788017301 | 23.89° C | 94% | 1014 hPa | 0 mm | - | - | - |
| 1788013091 | 23.89° C | 89% | 1014 hPa | 0 mm | - | - | - |
| 1788006579 | 22.78° C | 94% | 1012 hPa | 0 mm | - | - | - |
| 1788004309 | 22.78° C | 94% | 1012 hPa | 0 mm | - | - | - |
| 1787997455 | 25° C | 94% | 1011 hPa | 0 mm | - | - | - |
| 1787995060 | 25° C | 94% | 1011 hPa | 0 mm | - | - | - |
| 1787992958 | 26.11° C | 94% | 1011 hPa | 0 mm | - | - | - |
| 1787988548 | 28.89° C | 66% | 1011 hPa | 0 mm | - | - | - |
| 1787982302 | 30° C | 59% | 1011 hPa | 0 mm | - | - | - |
| 1787977598 | 30° C | 62% | 1013 hPa | 0 mm | - | - | - |
| 1787972921 | 28.89° C | 74% | 1013 hPa | 0 mm | - | - | - |
| 1787970836 | 30° C | 62% | 1013 hPa | 0 mm | - | - | - |
| 1787968513 | 30° C | 75% | 1013 hPa | 0 mm | - | - | - |
| 1787964172 | 27.22° C | 84% | 1013 hPa | 0 mm | - | - | - |
| 1787931284 | 25° C | 89% | 1012 hPa | 0 mm | - | - | - |
| 1787929345 | 25° C | 89% | 1012 hPa | 0 mm | - | - | - |
* Rain latest hour (hover to see other rain measurements)
** Current wind speed in m/s (hover to see current wind gust speed)